Time;durP1;ratioP1;P1;durP2;ratioP2;P2;SDS_P1;SDS_P2;PMS_P1;PMS_P2;Temp;Humidity;BMP_temperature;BMP_pressure;BME280_temperature;BME280_humidity;BME280_pressure;Samples;Min_cycle;Max_cycle;Signal;HPM_P1;HPM_P2
2023/06/11 00:02:15;;;;;;;14.67;10.23;;;16.20;45.30;;;;;;5033032;28;46678;-79
2023/06/11 00:04:45;;;;;;;18.00;10.70;;;16.20;45.30;;;;;;5033410;28;46923;-80
2023/06/11 00:07:11;;;;;;;14.80;10.60;;;16.10;45.00;;;;;;5031276;28;46534;-80
2023/06/11 00:09:37;;;;;;;15.20;10.33;;;16.10;45.40;;;;;;5032304;28;46546;-79
2023/06/11 00:12:03;;;;;;;16.50;9.90;;;16.10;45.50;;;;;;5033874;28;46446;-80
2023/06/11 00:14:28;;;;;;;15.10;10.00;;;16.10;45.50;;;;;;5035921;28;47050;-82
2023/06/11 00:16:56;;;;;;;12.80;9.73;;;16.00;45.30;;;;;;5033544;28;46411;-81
2023/06/11 00:19:28;;;;;;;14.90;9.90;;;16.00;45.50;;;;;;5033427;28;46497;-80
2023/06/11 00:21:58;;;;;;;14.40;10.20;;;16.00;45.60;;;;;;5034047;28;46650;-79
2023/06/11 00:24:24;;;;;;;14.97;10.50;;;15.90;45.50;;;;;;5031424;28;46655;-79
2023/06/11 00:26:50;;;;;;;22.57;11.47;;;15.90;45.60;;;;;;5030241;28;46470;-78
2023/06/11 00:29:15;;;;;;;15.90;11.50;;;15.80;45.80;;;;;;5037782;28;46583;-78
2023/06/11 00:31:41;;;;;;;14.40;10.60;;;15.80;46.30;;;;;;5036785;28;46383;-79
2023/06/11 00:34:07;;;;;;;13.93;9.70;;;15.80;46.60;;;;;;5034652;28;46529;-78
2023/06/11 00:36:33;;;;;;;14.57;10.70;;;15.70;46.90;;;;;;5037818;28;47651;-79
2023/06/11 00:38:58;;;;;;;15.67;11.07;;;15.70;46.60;;;;;;5033500;28;46471;-80
2023/06/11 00:41:26;;;;;;;15.97;10.50;;;15.80;47.00;;;;;;5036413;28;46443;-79
2023/06/11 00:43:54;;;;;;;13.30;10.73;;;15.70;48.00;;;;;;5035586;28;46426;-79
2023/06/11 00:46:21;;;;;;;18.77;11.87;;;15.70;46.70;;;;;;5034510;28;46950;-79
2023/06/11 00:48:48;;;;;;;12.70;10.23;;;15.80;46.80;;;;;;5035835;28;46398;-82
2023/06/11 00:51:15;;;;;;;19.53;11.10;;;15.70;46.60;;;;;;5036069;28;46654;-82
2023/06/11 00:53:41;;;;;;;18.77;11.10;;;15.70;46.70;;;;;;5037021;28;47944;-79
2023/06/11 00:56:06;;;;;;;15.37;10.83;;;15.70;47.10;;;;;;5034663;28;47337;-80
2023/06/11 00:58:33;;;;;;;13.60;10.10;;;15.70;47.10;;;;;;5033117;28;46436;-80
2023/06/11 01:01:00;;;;;;;18.40;10.67;;;15.60;47.50;;;;;;5034125;28;46462;-80
2023/06/11 01:03:27;;;;;;;15.03;9.90;;;15.60;47.70;;;;;;5052400;28;48335;-80
2023/06/11 01:06:01;;;;;;;18.67;10.73;;;15.60;47.60;;;;;;5032658;28;46862;-78
2023/06/11 01:08:29;;;;;;;15.20;10.90;;;15.60;47.70;;;;;;5038989;28;46336;-79
2023/06/11 01:10:59;;;;;;;23.30;10.80;;;15.60;47.70;;;;;;5031654;28;46510;-80
2023/06/11 01:13:25;;;;;;;17.53;10.70;;;15.50;48.00;;;;;;5030668;28;47509;-79
2023/06/11 01:15:54;;;;;;;13.43;10.77;;;15.50;48.20;;;;;;5034542;28;46457;-79
2023/06/11 01:18:28;;;;;;;15.77;11.90;;;15.40;48.70;;;;;;5035430;28;46350;-81
2023/06/11 01:21:02;;;;;;;14.57;10.23;;;15.40;49.10;;;;;;5051866;28;46386;-80
2023/06/11 01:23:41;;;;;;;15.90;11.80;;;15.30;49.60;;;;;;5033382;28;47591;-80
2023/06/11 01:26:34;;;;;;;15.87;11.20;;;15.30;50.20;;;;;;5034029;28;46540;-80
2023/06/11 01:29:01;;;;;;;14.73;11.60;;;15.20;50.90;;;;;;5035723;28;46332;-80
2023/06/11 01:31:29;;;;;;;17.87;11.47;;;15.20;51.30;;;;;;5040212;28;46774;-79
2023/06/11 01:33:56;;;;;;;16.90;10.90;;;15.10;51.40;;;;;;5035158;28;47048;-79
2023/06/11 01:36:24;;;;;;;16.73;11.67;;;15.10;51.50;;;;;;5038724;28;46347;-81
2023/06/11 01:38:51;;;;;;;16.47;11.27;;;15.10;51.70;;;;;;5034508;28;46418;-80
2023/06/11 01:41:17;;;;;;;17.57;11.43;;;15.00;51.70;;;;;;5035354;28;46561;-81
2023/06/11 01:43:42;;;;;;;15.77;10.90;;;15.20;51.70;;;;;;5029969;28;46691;-80
2023/06/11 01:46:08;;;;;;;17.27;11.77;;;15.20;51.60;;;;;;5033513;28;46463;-79
2023/06/11 01:48:33;;;;;;;15.60;10.60;;;15.20;51.50;;;;;;5034735;28;46484;-79
2023/06/11 01:51:00;;;;;;;17.43;11.50;;;15.20;51.40;;;;;;5036523;28;45915;-80
2023/06/11 01:53:26;;;;;;;17.63;11.27;;;15.10;51.50;;;;;;5041548;28;46383;-81
2023/06/11 01:55:51;;;;;;;19.17;13.03;;;15.10;51.70;;;;;;5044033;28;46439;-79
2023/06/11 01:58:17;;;;;;;16.40;11.97;;;15.10;51.90;;;;;;5038730;28;46291;-81
2023/06/11 02:00:43;;;;;;;22.00;12.33;;;15.10;52.00;;;;;;5040366;28;45944;-82
2023/06/11 02:03:08;;;;;;;14.80;11.17;;;15.10;52.10;;;;;;5036118;28;46447;-80
2023/06/11 02:05:35;;;;;;;22.80;11.80;;;15.10;52.10;;;;;;5036529;28;46327;-78
2023/06/11 02:08:01;;;;;;;17.40;13.10;;;15.10;52.40;;;;;;5035049;28;46724;-79
2023/06/11 02:10:26;;;;;;;16.47;12.40;;;15.20;52.60;;;;;;5036352;28;46486;-80
2023/06/11 02:12:52;;;;;;;14.97;11.63;;;15.20;52.90;;;;;;5052306;28;49090;-80
2023/06/11 02:15:19;;;;;;;17.37;11.60;;;15.20;53.20;;;;;;5038015;28;47064;-80
2023/06/11 02:17:45;;;;;;;21.33;12.20;;;15.20;53.80;;;;;;5033090;28;46941;-78
2023/06/11 02:20:11;;;;;;;20.43;12.90;;;15.20;54.20;;;;;;5037075;28;46728;-78
2023/06/11 02:22:37;;;;;;;15.70;12.30;;;15.20;54.40;;;;;;5034577;28;46598;-79
2023/06/11 02:25:03;;;;;;;18.87;11.90;;;15.20;55.00;;;;;;5034279;28;45913;-82
2023/06/11 02:27:29;;;;;;;16.20;11.50;;;15.20;55.10;;;;;;5033826;28;46337;-79
2023/06/11 02:29:56;;;;;;;15.03;11.50;;;15.10;55.20;;;;;;5034670;28;46610;-79
2023/06/11 02:32:22;;;;;;;15.80;11.60;;;15.10;55.30;;;;;;5036211;28;46446;-81
2023/06/11 02:34:47;;;;;;;16.53;12.63;;;15.10;55.10;;;;;;5031701;28;46311;-81
2023/06/11 02:37:13;;;;;;;16.17;11.87;;;15.10;55.40;;;;;;5042740;28;46483;-78
2023/06/11 02:39:39;;;;;;;19.83;12.60;;;15.10;55.40;;;;;;5032103;28;46511;-78
2023/06/11 02:42:05;;;;;;;22.90;13.87;;;15.10;55.40;;;;;;5030334;28;47056;-80
2023/06/11 02:44:31;;;;;;;18.63;13.13;;;15.10;55.10;;;;;;5031446;28;46278;-78
2023/06/11 02:46:57;;;;;;;25.93;12.60;;;15.10;55.40;;;;;;5032875;28;46391;-80
2023/06/11 02:49:22;;;;;;;16.80;12.63;;;15.00;55.50;;;;;;5033876;28;46589;-79
2023/06/11 02:51:48;;;;;;;18.07;12.23;;;15.00;55.50;;;;;;5033051;28;46365;-80
2023/06/11 02:54:14;;;;;;;16.80;12.90;;;15.00;55.50;;;;;;5030671;28;46367;-79
2023/06/11 02:56:39;;;;;;;23.83;13.40;;;15.00;55.40;;;;;;5036877;28;45824;-79
2023/06/11 02:59:05;;;;;;;19.73;12.83;;;15.00;55.50;;;;;;5035859;28;46699;-78
2023/06/11 03:01:31;;;;;;;19.50;14.63;;;15.00;55.50;;;;;;5030092;28;47711;-79
2023/06/11 03:03:57;;;;;;;19.57;14.00;;;15.00;55.60;;;;;;5034318;28;46488;-79
2023/06/11 03:06:22;;;;;;;25.53;14.13;;;15.00;55.70;;;;;;5032521;28;46379;-79
2023/06/11 03:08:48;;;;;;;18.30;13.97;;;14.90;56.20;;;;;;5031398;28;46428;-80
2023/06/11 03:11:15;;;;;;;19.93;13.87;;;15.00;56.20;;;;;;5034022;28;46938;-82
2023/06/11 03:13:40;;;;;;;18.73;13.53;;;14.90;56.20;;;;;;5035082;28;46494;-79
2023/06/11 03:16:06;;;;;;;21.23;14.47;;;14.90;56.10;;;;;;5050002;28;45823;-79
2023/06/11 03:18:32;;;;;;;20.80;14.10;;;14.90;56.10;;;;;;5030893;28;46430;-79
2023/06/11 03:20:57;;;;;;;22.30;14.00;;;14.90;56.10;;;;;;5031129;28;47241;-81
2023/06/11 03:23:23;;;;;;;20.10;14.10;;;14.90;56.10;;;;;;5034053;28;46388;-78
2023/06/11 03:25:48;;;;;;;19.10;14.07;;;15.00;56.30;;;;;;5029460;28;46657;-78
2023/06/11 03:28:14;;;;;;;22.27;14.60;;;15.00;56.60;;;;;;5029207;28;46454;-77
2023/06/11 03:30:40;;;;;;;21.07;15.03;;;15.00;56.70;;;;;;5034674;28;46695;-79
2023/06/11 03:33:05;;;;;;;20.27;14.53;;;15.00;56.80;;;;;;5031368;28;46458;-81
2023/06/11 03:35:31;;;;;;;18.70;14.30;;;15.00;57.00;;;;;;5032407;28;46599;-81
2023/06/11 03:37:56;;;;;;;18.80;14.87;;;15.00;57.20;;;;;;5029011;28;46364;-79
2023/06/11 03:40:22;;;;;;;25.50;14.07;;;15.10;57.20;;;;;;5028305;28;46462;-80
2023/06/11 03:42:48;;;;;;;19.93;13.80;;;15.10;56.90;;;;;;5034552;28;46510;-80
2023/06/11 03:45:13;;;;;;;19.50;14.33;;;15.10;56.90;;;;;;5030183;28;46565;-78
2023/06/11 03:47:39;;;;;;;18.83;14.40;;;15.20;57.20;;;;;;5033972;28;46422;-82
2023/06/11 03:50:06;;;;;;;23.57;13.70;;;15.10;57.50;;;;;;5040977;28;47948;-78
2023/06/11 03:52:31;;;;;;;21.70;15.50;;;15.10;57.80;;;;;;5037118;28;46746;-81
2023/06/11 03:54:57;;;;;;;25.13;14.67;;;15.20;57.80;;;;;;5034017;28;46492;-79
2023/06/11 03:57:22;;;;;;;18.13;12.77;;;15.30;57.60;;;;;;5030677;28;46446;-78
2023/06/11 03:59:48;;;;;;;17.23;13.40;;;15.40;57.20;;;;;;5040418;28;48217;-79
2023/06/11 04:02:14;;;;;;;21.33;13.83;;;15.40;57.00;;;;;;5036027;28;46539;-81
2023/06/11 04:04:40;;;;;;;16.77;12.90;;;15.40;56.90;;;;;;5034942;28;46442;-80
2023/06/11 04:07:05;;;;;;;19.80;13.27;;;15.50;57.30;;;;;;5035403;28;46375;-80
2023/06/11 04:09:31;;;;;;;17.73;13.63;;;15.60;56.80;;;;;;5038348;28;46552;-80
2023/06/11 04:11:57;;;;;;;17.27;13.50;;;15.60;56.80;;;;;;5034947;28;46747;-79
2023/06/11 04:14:23;;;;;;;17.00;12.70;;;15.70;56.90;;;;;;5034896;28;46351;-79
2023/06/11 04:16:49;;;;;;;17.43;13.10;;;15.80;57.00;;;;;;5042146;28;46570;-79
2023/06/11 04:19:15;;;;;;;17.73;13.07;;;15.90;57.10;;;;;;5035802;28;47083;-80
2023/06/11 04:21:41;;;;;;;16.77;13.60;;;16.10;56.30;;;;;;5039426;28;46484;-82
2023/06/11 04:24:06;;;;;;;21.40;13.33;;;16.20;55.70;;;;;;5016185;28;46405;-81
2023/06/11 04:26:33;;;;;;;18.00;13.03;;;16.30;55.30;;;;;;5034386;28;46660;-79
2023/06/11 04:28:59;;;;;;;15.67;11.60;;;16.40;55.10;;;;;;5035969;28;46423;-81
2023/06/11 04:31:29;;;;;;;16.87;12.80;;;16.60;55.00;;;;;;5033918;28;46426;-81
2023/06/11 04:34:02;;;;;;;17.00;12.93;;;16.70;54.70;;;;;;5041167;28;46514;-80
2023/06/11 04:36:29;;;;;;;20.90;12.13;;;16.70;54.70;;;;;;5034931;28;46437;-80
2023/06/11 04:38:55;;;;;;;15.90;11.70;;;16.80;54.60;;;;;;5037307;28;48480;-80
2023/06/11 04:41:26;;;;;;;16.27;12.47;;;17.00;54.00;;;;;;5033019;28;46489;-81
2023/06/11 04:43:52;;;;;;;16.63;11.00;;;17.50;52.60;;;;;;5033243;28;46465;-80
2023/06/11 04:46:17;;;;;;;14.07;10.17;;;19.00;50.50;;;;;;5040461;28;46281;-81
2023/06/11 04:48:43;;;;;;;11.50;8.53;;;20.30;46.90;;;;;;5037603;28;46649;-80
2023/06/11 04:51:11;;;;;;;13.50;9.00;;;21.10;43.60;;;;;;5036944;28;46522;-82
2023/06/11 04:53:38;;;;;;;16.47;8.70;;;22.00;41.00;;;;;;5033397;28;46552;-80
2023/06/11 04:56:04;;;;;;;12.03;8.33;;;22.60;40.10;;;;;;5032638;28;46622;-81
2023/06/11 04:58:30;;;;;;;12.83;9.27;;;22.90;36.70;;;;;;5030625;28;46763;-80
2023/06/11 05:00:56;;;;;;;11.63;8.47;;;23.40;35.00;;;;;;5030436;28;46469;-81
2023/06/11 05:03:27;;;;;;;12.53;7.80;;;23.80;33.00;;;;;;5037361;28;46475;-80
2023/06/11 05:05:53;;;;;;;12.13;8.00;;;24.10;31.70;;;;;;5034661;28;46023;-78
2023/06/11 05:08:21;;;;;;;15.07;8.53;;;24.50;30.00;;;;;;5034347;28;46332;-81
2023/06/11 05:10:47;;;;;;;11.90;8.80;;;24.80;28.70;;;;;;5033372;28;46970;-79
2023/06/11 05:13:14;;;;;;;10.00;8.20;;;25.10;27.20;;;;;;5035475;28;46643;-79
2023/06/11 05:15:40;;;;;;;12.40;8.27;;;25.30;25.40;;;;;;5030105;28;46787;-78
2023/06/11 05:18:05;;;;;;;11.73;8.77;;;25.40;25.00;;;;;;5033673;28;46434;-79
2023/06/11 05:20:31;;;;;;;12.07;8.43;;;25.50;24.70;;;;;;5033145;28;46575;-81
2023/06/11 05:23:00;;;;;;;10.80;7.30;;;25.80;23.20;;;;;;5034580;28;46837;-81
2023/06/11 05:25:29;;;;;;;13.60;7.63;;;25.70;22.40;;;;;;5036814;28;46967;-80
2023/06/11 05:28:02;;;;;;;11.87;8.20;;;26.10;21.20;;;;;;5034165;28;47140;-80
2023/06/11 05:30:33;;;;;;;10.00;7.87;;;26.70;19.50;;;;;;5035699;28;46501;-81
2023/06/11 05:32:58;;;;;;;12.83;8.10;;;26.80;17.90;;;;;;5032988;28;46488;-79
2023/06/11 05:35:25;;;;;;;12.13;7.30;;;27.00;18.20;;;;;;5035375;28;46811;-81
2023/06/11 05:37:51;;;;;;;11.37;7.83;;;27.30;18.00;;;;;;5036730;28;46992;-82
2023/06/11 05:40:16;;;;;;;10.80;7.70;;;27.50;16.20;;;;;;5035270;28;46424;-80
2023/06/11 05:42:42;;;;;;;11.37;7.97;;;27.50;17.20;;;;;;5036865;28;46493;-79
2023/06/11 05:45:08;;;;;;;10.90;7.87;;;27.60;16.00;;;;;;5033250;28;46541;-79
2023/06/11 05:47:34;;;;;;;10.63;7.10;;;27.70;15.30;;;;;;5032581;28;47179;-80
2023/06/11 05:50:00;;;;;;;8.77;6.20;;;28.00;14.10;;;;;;5032922;28;46463;-80
2023/06/11 05:52:26;;;;;;;11.30;6.90;;;28.20;13.00;;;;;;5049383;28;46513;-78
2023/06/11 05:54:52;;;;;;;11.43;7.33;;;26.70;15.80;;;;;;5034288;28;46337;-78
2023/06/11 05:57:22;;;;;;;11.33;6.30;;;25.10;19.40;;;;;;5039092;28;49226;-80
2023/06/11 05:59:49;;;;;;;15.80;6.43;;;24.00;22.30;;;;;;5031170;28;46463;-80
2023/06/11 06:02:15;;;;;;;10.63;7.23;;;23.20;24.70;;;;;;5031458;28;46463;-80
2023/06/11 06:04:41;;;;;;;11.43;8.23;;;22.80;25.80;;;;;;5039142;28;46313;-80
2023/06/11 06:07:06;;;;;;;13.10;8.40;;;22.20;26.60;;;;;;5048754;28;47958;-81
2023/06/11 06:09:33;;;;;;;11.73;7.50;;;21.90;27.20;;;;;;5038095;28;46636;-79
2023/06/11 06:12:00;;;;;;;12.63;8.00;;;21.70;27.50;;;;;;5036004;28;46463;-78
2023/06/11 06:14:25;;;;;;;11.10;8.03;;;21.60;27.40;;;;;;5038843;28;46661;-82
2023/06/11 06:16:51;;;;;;;12.67;8.10;;;21.50;27.20;;;;;;5032163;28;48832;-78
2023/06/11 06:19:17;;;;;;;9.70;7.47;;;21.40;27.70;;;;;;5033655;28;46450;-79
2023/06/11 06:21:43;;;;;;;10.80;7.80;;;21.40;27.80;;;;;;5031597;28;46772;-79
2023/06/11 06:24:11;;;;;;;14.87;7.40;;;21.30;27.70;;;;;;5030556;28;46466;-79
2023/06/11 06:26:40;;;;;;;10.87;7.67;;;21.40;27.70;;;;;;5035250;28;46704;-79
2023/06/11 06:29:10;;;;;;;10.97;7.60;;;21.40;27.50;;;;;;5033232;28;46427;-78
2023/06/11 06:31:36;;;;;;;12.53;7.40;;;21.30;27.60;;;;;;5031837;28;46432;-80
2023/06/11 06:34:03;;;;;;;12.87;8.70;;;21.30;27.50;;;;;;5029735;28;46796;-82
2023/06/11 06:36:28;;;;;;;11.83;7.30;;;21.20;27.50;;;;;;5042141;28;48438;-80
2023/06/11 06:38:54;;;;;;;13.00;8.07;;;21.10;27.90;;;;;;5026591;28;47737;-79
2023/06/11 06:41:20;;;;;;;9.10;7.37;;;21.00;28.20;;;;;;5024092;28;46789;-79
2023/06/11 06:43:46;;;;;;;14.23;7.90;;;21.10;28.10;;;;;;5022893;28;46959;-79
2023/06/11 06:46:11;;;;;;;11.17;7.30;;;21.60;27.60;;;;;;5034216;28;47058;-79
2023/06/11 06:48:37;;;;;;;12.33;6.97;;;21.70;27.00;;;;;;5031298;28;45864;-80
2023/06/11 06:51:03;;;;;;;9.33;6.67;;;21.70;26.70;;;;;;5033010;28;46485;-80
2023/06/11 06:53:29;;;;;;;9.63;6.90;;;21.60;26.80;;;;;;5030336;28;46404;-79
2023/06/11 06:55:55;;;;;;;18.53;6.93;;;21.90;26.80;;;;;;5045096;28;48099;-81
2023/06/11 06:58:20;;;;;;;10.10;7.10;;;22.00;26.40;;;;;;5033188;28;46550;-78
2023/06/11 07:00:46;;;;;;;10.03;6.90;;;22.00;26.10;;;;;;5030453;28;46426;-79
2023/06/11 07:03:13;;;;;;;11.30;6.97;;;22.00;25.70;;;;;;5046257;28;46101;-78
2023/06/11 07:05:43;;;;;;;9.73;7.10;;;21.80;25.50;;;;;;5029896;28;46431;-80
2023/06/11 07:08:11;;;;;;;8.03;6.10;;;21.90;25.60;;;;;;5031252;28;46518;-81
2023/06/11 07:10:40;;;;;;;13.23;6.93;;;21.80;25.60;;;;;;5032573;28;46357;-79
2023/06/11 07:13:07;;;;;;;9.03;6.60;;;21.90;24.90;;;;;;5039919;28;46450;-80
2023/06/11 07:15:33;;;;;;;9.00;6.50;;;22.00;25.10;;;;;;5031492;28;46520;-80
2023/06/11 07:17:59;;;;;;;16.23;7.10;;;22.00;26.20;;;;;;5035635;28;46585;-80
2023/06/11 07:20:24;;;;;;;15.73;7.07;;;22.10;25.20;;;;;;5035083;28;46442;-82
2023/06/11 07:22:50;;;;;;;8.73;6.47;;;22.30;24.80;;;;;;5035248;28;46498;-82
2023/06/11 07:25:16;;;;;;;10.80;6.50;;;22.20;24.00;;;;;;5036128;28;48518;-79
2023/06/11 07:27:42;;;;;;;8.60;5.63;;;22.10;23.90;;;;;;5031529;28;46494;-78
2023/06/11 07:30:09;;;;;;;9.80;6.30;;;22.20;24.00;;;;;;5047682;28;46407;-79
2023/06/11 07:32:36;;;;;;;7.50;5.87;;;22.20;24.00;;;;;;5030734;28;46402;-79
2023/06/11 07:35:01;;;;;;;9.97;6.07;;;22.10;23.90;;;;;;5036666;28;46530;-78
2023/06/11 07:37:27;;;;;;;13.40;5.90;;;22.30;24.10;;;;;;5034138;28;46733;-79
2023/06/11 07:39:53;;;;;;;11.10;6.30;;;22.50;23.60;;;;;;5037310;28;46718;-78
2023/06/11 07:42:18;;;;;;;14.10;6.00;;;22.50;22.70;;;;;;5035629;28;46460;-78
2023/06/11 07:44:44;;;;;;;9.80;5.37;;;22.60;22.70;;;;;;5036978;28;46640;-78
2023/06/11 07:47:10;;;;;;;10.30;6.10;;;22.60;22.50;;;;;;5049672;28;46456;-79
2023/06/11 07:49:35;;;;;;;9.30;5.80;;;22.80;22.40;;;;;;5035878;28;46510;-79
2023/06/11 07:52:01;;;;;;;8.40;6.23;;;23.00;21.70;;;;;;5038402;28;46931;-79
2023/06/11 07:54:27;;;;;;;8.50;5.10;;;23.10;21.20;;;;;;5038062;28;47487;-79
2023/06/11 07:56:53;;;;;;;10.00;6.37;;;23.30;20.90;;;;;;5036847;28;46413;-78
2023/06/11 07:59:19;;;;;;;8.17;6.17;;;23.20;20.70;;;;;;5036989;28;46356;-78
2023/06/11 08:01:45;;;;;;;10.33;5.80;;;23.20;20.90;;;;;;5042972;28;46373;-78
2023/06/11 08:04:10;;;;;;;17.53;5.87;;;23.20;20.60;;;;;;5034846;28;48179;-78
2023/06/11 08:06:36;;;;;;;8.03;4.63;;;23.40;20.50;;;;;;5038330;28;46402;-80
2023/06/11 08:09:02;;;;;;;8.60;5.53;;;23.50;19.70;;;;;;5035607;28;46392;-82
2023/06/11 08:11:28;;;;;;;14.67;5.93;;;23.50;19.60;;;;;;5040357;28;46873;-82
2023/06/11 08:13:53;;;;;;;8.20;4.17;;;23.40;19.50;;;;;;5030520;28;48398;-80
2023/06/11 08:16:19;;;;;;;11.90;5.20;;;23.20;19.60;;;;;;5032509;28;46562;-80
2023/06/11 08:18:44;;;;;;;6.63;5.10;;;23.30;19.70;;;;;;5049833;28;46561;-82
2023/06/11 08:21:10;;;;;;;9.07;4.93;;;23.50;19.20;;;;;;5037209;28;46636;-80
2023/06/11 08:23:39;;;;;;;8.20;5.70;;;23.40;18.30;;;;;;5030893;28;46909;-81
2023/06/11 08:26:05;;;;;;;7.53;5.23;;;23.30;18.20;;;;;;5033581;28;46676;-80
2023/06/11 08:28:31;;;;;;;7.30;5.53;;;23.20;18.20;;;;;;5036777;28;46475;-80
2023/06/11 08:30:57;;;;;;;9.03;5.47;;;23.20;18.50;;;;;;5034881;28;46312;-79
2023/06/11 08:33:23;;;;;;;14.20;5.53;;;23.00;18.70;;;;;;5035052;28;46459;-78
2023/06/11 08:35:48;;;;;;;10.37;5.93;;;23.00;19.00;;;;;;5035034;28;46459;-79
2023/06/11 08:38:14;;;;;;;8.03;4.90;;;23.10;19.30;;;;;;5050391;28;46668;-79
2023/06/11 08:40:41;;;;;;;14.30;5.50;;;23.40;18.90;;;;;;5035483;28;46473;-78
2023/06/11 08:43:10;;;;;;;8.40;4.77;;;23.60;18.50;;;;;;5032247;28;47479;-81
2023/06/11 08:45:36;;;;;;;9.77;4.80;;;23.70;17.70;;;;;;5031937;28;45792;-79
2023/06/11 08:48:03;;;;;;;9.70;4.90;;;23.70;17.50;;;;;;5052215;28;46517;-78
2023/06/11 08:50:31;;;;;;;7.97;4.87;;;23.60;17.30;;;;;;5036313;28;45842;-81
2023/06/11 08:53:00;;;;;;;6.93;4.37;;;23.50;17.60;;;;;;5036243;28;46547;-79
2023/06/11 08:55:27;;;;;;;6.13;3.90;;;23.70;17.50;;;;;;5039353;28;46507;-80
2023/06/11 08:57:53;;;;;;;8.30;4.90;;;23.70;17.00;;;;;;5036411;28;46462;-80
2023/06/11 09:00:19;;;;;;;6.40;3.83;;;23.70;16.90;;;;;;5034430;28;46094;-78
2023/06/11 09:02:45;;;;;;;6.73;4.47;;;23.70;16.30;;;;;;5033317;28;46758;-78
2023/06/11 09:05:11;;;;;;;8.03;4.30;;;23.70;16.30;;;;;;5033056;28;46590;-80
2023/06/11 09:07:37;;;;;;;7.07;4.47;;;23.70;16.10;;;;;;5033426;28;46459;-79
2023/06/11 09:10:03;;;;;;;10.93;4.90;;;23.70;15.80;;;;;;5035068;28;46659;-83
2023/06/11 09:12:29;;;;;;;6.67;4.70;;;23.90;15.60;;;;;;5036916;28;46668;-81
2023/06/11 09:14:54;;;;;;;6.40;4.40;;;24.10;15.30;;;;;;5032555;28;46426;-80
2023/06/11 09:17:20;;;;;;;6.60;4.00;;;24.30;15.00;;;;;;5050378;28;46551;-81
2023/06/11 09:19:46;;;;;;;6.87;4.40;;;24.10;15.00;;;;;;5036502;28;46356;-83
2023/06/11 09:22:12;;;;;;;8.50;4.40;;;23.90;15.50;;;;;;5037035;28;48515;-81
2023/06/11 09:24:37;;;;;;;5.93;4.00;;;24.00;15.60;;;;;;5031680;28;46610;-82
2023/06/11 09:27:05;;;;;;;6.93;4.60;;;23.90;15.40;;;;;;5033236;28;46643;-81
2023/06/11 09:29:31;;;;;;;7.50;4.60;;;23.80;15.10;;;;;;5035302;28;46712;-81
2023/06/11 09:32:08;;;;;;;5.97;4.03;;;23.80;15.10;;;;;;5037064;28;46578;-81
2023/06/11 09:34:34;;;;;;;7.40;4.10;;;23.70;14.50;;;;;;5034478;28;46706;-81
2023/06/11 09:37:03;;;;;;;8.60;4.83;;;23.80;14.50;;;;;;5034567;28;46967;-79
2023/06/11 09:39:30;;;;;;;6.43;4.60;;;23.80;14.60;;;;;;5035833;28;46470;-79
2023/06/11 09:41:55;;;;;;;5.13;3.63;;;23.70;14.10;;;;;;5037854;28;48342;-79
2023/06/11 09:44:23;;;;;;;6.90;4.37;;;23.90;14.10;;;;;;5032152;28;46794;-78
2023/06/11 09:46:50;;;;;;;15.97;3.90;;;23.90;13.70;;;;;;5034993;28;46930;-82
2023/06/11 09:49:16;;;;;;;9.03;4.33;;;23.80;13.50;;;;;;5029681;28;46527;-80
2023/06/11 09:51:43;;;;;;;5.40;4.00;;;23.80;14.00;;;;;;5043758;28;48252;-80
2023/06/11 09:54:10;;;;;;;6.87;4.33;;;24.00;14.00;;;;;;5033404;28;46447;-80
2023/06/11 09:56:37;;;;;;;9.43;3.97;;;24.00;13.90;;;;;;5034200;28;46484;-78
2023/06/11 09:59:04;;;;;;;9.50;4.57;;;24.10;13.90;;;;;;5039059;28;46597;-79
2023/06/11 10:01:30;;;;;;;7.77;4.70;;;24.00;14.20;;;;;;5031724;28;46932;-80
2023/06/11 10:04:00;;;;;;;12.50;4.60;;;24.00;13.70;;;;;;5048086;28;46956;-81
2023/06/11 10:06:30;;;;;;;7.00;4.47;;;24.20;13.40;;;;;;5034256;28;45981;-79
2023/06/11 10:08:58;;;;;;;10.40;4.60;;;24.40;12.60;;;;;;5030005;28;46365;-81
2023/06/11 10:11:24;;;;;;;9.80;4.60;;;24.30;12.70;;;;;;5048233;28;47987;-80
2023/06/11 10:14:02;;;;;;;6.30;4.20;;;24.20;12.70;;;;;;5050205;28;46165;-81
2023/06/11 10:16:31;;;;;;;9.03;4.20;;;24.10;12.80;;;;;;5033960;28;46362;-81
2023/06/11 10:19:10;;;;;;;6.03;4.00;;;24.30;12.40;;;;;;5050093;28;46833;-81
2023/06/11 10:21:49;;;;;;;6.17;4.00;;;24.50;11.90;;;;;;5050207;28;48000;-78
2023/06/11 10:24:28;;;;;;;9.60;4.10;;;24.70;11.00;;;;;;5032418;28;46439;-81
2023/06/11 10:27:08;;;;;;;7.30;3.90;;;24.70;10.80;;;;;;5037061;28;46443;-83
2023/06/11 10:29:41;;;;;;;7.33;4.20;;;24.70;10.60;;;;;;5035489;28;46468;-79
2023/06/11 10:32:21;;;;;;;7.23;4.03;;;24.70;11.10;;;;;;5037805;28;47190;-82
2023/06/11 10:34:58;;;;;;;9.63;4.20;;;25.10;10.30;;;;;;5032955;28;46741;-80
2023/06/11 10:37:30;;;;;;;6.40;3.80;;;25.00;9.50;;;;;;5038307;28;46441;-80
2023/06/11 10:39:56;;;;;;;6.63;4.20;;;24.90;9.70;;;;;;5050504;28;46429;-81
2023/06/11 10:42:49;;;;;;;7.10;3.93;;;25.00;9.60;;;;;;5047822;28;47199;-78
2023/06/11 10:45:15;;;;;;;7.47;4.30;;;25.00;9.60;;;;;;5028680;28;46465;-77
2023/06/11 10:47:46;;;;;;;8.57;4.77;;;25.20;9.50;;;;;;5046736;28;46706;-80
2023/06/11 10:50:14;;;;;;;5.90;3.90;;;25.30;9.50;;;;;;5037591;28;46516;-81
2023/06/11 10:53:02;;;;;;;6.33;4.37;;;25.30;8.90;;;;;;5048358;28;48534;-79
2023/06/11 10:55:29;;;;;;;6.50;4.20;;;25.30;8.90;;;;;;5033197;28;46602;-79
2023/06/11 10:57:59;;;;;;;10.10;4.47;;;25.40;9.20;;;;;;5047965;28;46370;-80
2023/06/11 11:00:28;;;;;;;6.50;4.27;;;25.20;8.90;;;;;;5034651;28;46092;-78
2023/06/11 11:02:56;;;;;;;5.73;3.97;;;25.00;9.10;;;;;;5033064;28;46622;-79
2023/06/11 11:05:22;;;;;;;7.70;4.20;;;25.00;9.00;;;;;;5036428;28;45824;-80
2023/06/11 11:07:48;;;;;;;10.40;3.90;;;25.20;9.10;;;;;;5031847;28;46406;-79
2023/06/11 11:10:19;;;;;;;6.07;3.90;;;25.20;8.10;;;;;;5033511;28;46715;-81
2023/06/11 11:12:48;;;;;;;9.00;3.70;;;25.10;9.30;;;;;;5035446;28;48496;-80
2023/06/11 11:15:14;;;;;;;6.83;3.60;;;25.30;8.10;;;;;;5029399;28;46522;-78
2023/06/11 11:17:41;;;;;;;6.97;4.10;;;25.40;8.10;;;;;;5034781;28;46493;-80
2023/06/11 11:20:12;;;;;;;7.50;3.87;;;25.20;8.50;;;;;;5033369;28;46522;-80
2023/06/11 11:22:38;;;;;;;7.40;4.60;;;25.10;8.60;;;;;;5027482;28;46606;-79
2023/06/11 11:25:06;;;;;;;10.17;4.60;;;25.20;8.90;;;;;;5033111;28;46630;-79
2023/06/11 11:27:33;;;;;;;6.70;3.80;;;25.00;8.70;;;;;;5034276;28;46338;-84
2023/06/11 11:30:01;;;;;;;8.67;3.90;;;24.70;8.70;;;;;;5030438;28;46481;-79
2023/06/11 11:32:30;;;;;;;6.03;3.50;;;24.80;9.10;;;;;;5028987;28;49496;-81
2023/06/11 11:34:57;;;;;;;6.17;3.70;;;24.80;9.20;;;;;;5047097;28;46391;-79
2023/06/11 11:37:22;;;;;;;8.10;3.70;;;24.90;8.80;;;;;;5034373;28;46178;-81
2023/06/11 11:39:49;;;;;;;6.90;3.70;;;25.00;8.00;;;;;;5029620;28;46466;-82
2023/06/11 11:42:15;;;;;;;7.00;3.67;;;25.00;7.50;;;;;;5036085;28;47580;-82
2023/06/11 11:44:42;;;;;;;13.00;3.57;;;25.10;7.60;;;;;;5049544;28;46923;-79
2023/06/11 11:47:09;;;;;;;7.80;3.97;;;25.10;7.80;;;;;;5032860;28;46391;-78
2023/06/11 11:49:35;;;;;;;5.70;3.30;;;25.20;7.60;;;;;;5031717;28;46593;-81
2023/06/11 11:52:01;;;;;;;6.10;3.50;;;25.20;7.40;;;;;;5031423;28;47120;-80
2023/06/11 11:54:27;;;;;;;11.90;3.50;;;25.40;7.30;;;;;;5031986;28;45775;-79
2023/06/11 11:57:20;;;;;;;8.60;3.63;;;25.30;7.00;;;;;;5045149;28;46316;-78
2023/06/11 11:59:51;;;;;;;5.10;3.20;;;25.00;6.80;;;;;;5032360;28;46754;-81
2023/06/11 12:02:17;;;;;;;11.47;3.27;;;24.80;7.00;;;;;;5033560;28;48675;-82
2023/06/11 12:04:47;;;;;;;6.37;3.77;;;25.00;6.70;;;;;;5030958;28;46781;-83
2023/06/11 12:07:15;;;;;;;11.97;3.37;;;25.30;6.90;;;;;;5033939;28;46816;-80
2023/06/11 12:09:41;;;;;;;7.90;3.13;;;25.40;7.30;;;;;;5030983;28;46371;-80
2023/06/11 12:12:08;;;;;;;5.27;3.67;;;25.50;6.50;;;;;;5033496;28;47248;-80
2023/06/11 12:14:35;;;;;;;7.20;4.03;;;25.70;6.50;;;;;;5033316;28;46463;-81
2023/06/11 12:17:00;;;;;;;5.37;3.50;;;26.00;6.10;;;;;;5044697;28;46382;-79
2023/06/11 12:19:29;;;;;;;6.93;3.40;;;26.30;5.70;;;;;;5030775;28;46689;-81
2023/06/11 12:21:55;;;;;;;7.60;3.97;;;26.20;5.00;;;;;;5032395;28;46455;-80
2023/06/11 12:24:22;;;;;;;6.80;3.63;;;25.60;5.10;;;;;;5034398;28;46562;-81
2023/06/11 12:26:49;;;;;;;5.23;3.10;;;25.40;5.10;;;;;;5050728;28;46380;-83
2023/06/11 12:29:16;;;;;;;5.90;3.53;;;25.20;5.40;;;;;;5034524;28;46939;-82
2023/06/11 12:31:41;;;;;;;5.60;3.60;;;25.30;5.70;;;;;;5033238;28;46050;-81
2023/06/11 12:34:09;;;;;;;5.63;3.33;;;25.60;5.30;;;;;;5030978;28;46378;-82
2023/06/11 12:36:36;;;;;;;4.97;3.17;;;25.70;4.10;;;;;;5038540;28;46364;-82
2023/06/11 12:39:04;;;;;;;7.10;3.20;;;25.90;3.90;;;;;;5049661;28;46490;-83